createdAt,value
2022-12-03T00:00:47.796Z,38.50
2022-12-03T00:03:24.552Z,38.70
2022-12-03T00:05:59.628Z,50.80
2022-12-03T00:08:31.017Z,49.20
2022-12-03T00:11:02.348Z,49.10
2022-12-03T00:13:33.899Z,45.20
2022-12-03T00:16:05.544Z,57.90
2022-12-03T00:18:37.291Z,48.10
2022-12-03T00:21:09.153Z,47.50
2022-12-03T00:23:42.426Z,46.80
2022-12-03T00:26:14.009Z,42.90
2022-12-03T00:28:45.451Z,49.60
2022-12-03T00:31:21.674Z,49.90
2022-12-03T00:33:53.780Z,54.60
2022-12-03T00:36:25.415Z,55.20
2022-12-03T00:38:56.757Z,49.50
2022-12-03T00:41:28.128Z,49.30
2022-12-03T00:43:59.659Z,53.60
2022-12-03T00:46:31.091Z,51.40
2022-12-03T00:49:02.583Z,54.60
2022-12-03T00:51:34.202Z,60.00
2022-12-03T00:54:05.682Z,53.50
2022-12-03T00:56:37.096Z,53.40
2022-12-03T00:59:08.448Z,57.00
2022-12-03T01:01:39.921Z,60.50
2022-12-03T01:04:11.350Z,57.70
2022-12-03T01:06:43.046Z,53.90
2022-12-03T01:09:14.472Z,56.80
2022-12-03T01:11:45.825Z,58.90
2022-12-03T01:14:19.530Z,58.50
2022-12-03T01:16:51.475Z,52.30
2022-12-03T01:19:23.027Z,53.30
2022-12-03T01:21:56.070Z,57.80
2022-12-03T01:24:27.498Z,60.00
2022-12-03T01:26:59.292Z,60.80
2022-12-03T01:29:30.772Z,62.40
2022-12-03T01:32:19.804Z,52.60
2022-12-03T01:34:53.099Z,53.00
2022-12-03T01:37:27.114Z,58.30
2022-12-03T01:39:58.678Z,63.20
2022-12-03T01:42:32.837Z,59.40
2022-12-03T01:45:05.336Z,57.60
2022-12-03T01:47:39.517Z,54.00
2022-12-03T01:50:17.201Z,57.40
2022-12-03T01:52:49.255Z,50.20
2022-12-03T01:55:22.809Z,53.90
2022-12-03T01:57:57.408Z,63.70
2022-12-03T02:00:32.213Z,66.00
2022-12-03T02:03:09.229Z,48.30
2022-12-03T02:05:41.637Z,69.00
2022-12-03T02:08:30.418Z,55.80
2022-12-03T02:11:05.099Z,58.50
2022-12-03T02:13:36.943Z,55.90
2022-12-03T02:16:09.198Z,47.60
2022-12-03T02:18:40.932Z,51.40
2022-12-03T02:21:21.229Z,57.10
2022-12-03T02:24:01.744Z,53.20
2022-12-03T02:26:33.350Z,51.90
2022-12-03T02:29:05.483Z,58.80
2022-12-03T02:31:37.026Z,59.30
2022-12-03T02:34:10.494Z,50.30
2022-12-03T02:36:42.677Z,53.60
2022-12-03T02:39:14.416Z,56.90
2022-12-03T02:42:03.430Z,57.60
2022-12-03T02:44:34.695Z,56.80
2022-12-03T02:47:06.745Z,56.10
2022-12-03T02:49:38.283Z,57.40
2022-12-03T02:52:09.738Z,52.10
2022-12-03T02:54:41.754Z,51.30
2022-12-03T02:57:13.385Z,51.90
2022-12-03T02:59:46.611Z,54.40
2022-12-03T03:02:18.317Z,63.30
2022-12-03T03:04:50.102Z,60.90
2022-12-03T03:07:21.552Z,52.70
2022-12-03T03:09:52.935Z,57.50
2022-12-03T03:12:24.949Z,63.70
2022-12-03T03:14:56.528Z,55.40
2022-12-03T03:17:28.150Z,57.30
2022-12-03T03:19:59.750Z,57.90
2022-12-03T03:22:38.347Z,54.70
2022-12-03T03:25:13.820Z,59.70
2022-12-03T03:27:46.208Z,61.00
2022-12-03T03:30:18.062Z,57.80
2022-12-03T03:32:50.072Z,54.10
2022-12-03T03:35:21.687Z,56.50
2022-12-03T03:37:53.823Z,61.50
2022-12-03T03:40:25.417Z,53.80
2022-12-03T03:42:57.795Z,58.50
2022-12-03T03:45:29.887Z,60.00
2022-12-03T03:48:02.659Z,62.60
2022-12-03T03:50:35.224Z,64.90
2022-12-03T03:53:07.804Z,60.00
2022-12-03T03:55:39.655Z,50.00
2022-12-03T03:58:11.503Z,60.70
2022-12-03T04:00:43.652Z,63.60
2022-12-03T04:03:15.427Z,54.80
2022-12-03T04:05:47.308Z,55.00
2022-12-03T04:08:18.867Z,62.50
2022-12-03T04:11:07.900Z,55.40
2022-12-03T04:13:39.416Z,57.10
2022-12-03T04:16:11.437Z,51.00
2022-12-03T04:18:46.114Z,60.40
2022-12-03T04:21:51.857Z,57.90
2022-12-03T04:24:23.202Z,60.60
2022-12-03T04:27:12.078Z,57.00
2022-12-03T04:29:48.034Z,61.20
2022-12-03T04:32:49.438Z,51.10
2022-12-03T04:35:40.239Z,61.90
2022-12-03T04:38:11.833Z,54.30
2022-12-03T04:41:04.423Z,62.00
2022-12-03T04:43:56.961Z,62.00
2022-12-03T04:46:28.519Z,61.00
2022-12-03T04:49:00.351Z,52.90
2022-12-03T04:51:31.993Z,60.00
2022-12-03T04:54:03.526Z,58.40
2022-12-03T04:56:34.909Z,59.20
2022-12-03T04:59:10.035Z,62.90
2022-12-03T05:01:44.838Z,57.90
2022-12-03T05:04:16.982Z,62.60
2022-12-03T05:06:48.955Z,60.30
2022-12-03T05:09:20.692Z,58.20
2022-12-03T05:11:52.231Z,58.70
2022-12-03T05:14:23.854Z,64.30
2022-12-03T05:16:55.621Z,58.60
2022-12-03T05:19:47.347Z,66.40
2022-12-03T05:22:18.921Z,61.70
2022-12-03T05:24:50.524Z,64.30
2022-12-03T05:27:24.253Z,57.30
2022-12-03T05:29:56.240Z,61.20
2022-12-03T05:32:27.922Z,66.40
2022-12-03T05:34:59.294Z,62.50
2022-12-03T05:37:30.731Z,66.10
2022-12-03T05:40:02.167Z,67.40
2022-12-03T05:42:50.795Z,71.20
2022-12-03T05:45:22.149Z,64.80
2022-12-03T05:47:54.014Z,67.10
2022-12-03T05:50:28.420Z,79.90
2022-12-03T05:53:00.336Z,62.40
2022-12-03T05:55:32.770Z,63.20
2022-12-03T05:58:04.652Z,59.20
2022-12-03T06:00:42.903Z,65.20
2022-12-03T06:03:14.672Z,64.20
2022-12-03T06:05:46.254Z,64.60
2022-12-03T06:08:17.762Z,67.40
2022-12-03T06:10:49.288Z,66.60
2022-12-03T06:13:20.836Z,70.20
2022-12-03T06:15:52.312Z,66.10
2022-12-03T06:18:23.737Z,68.20
2022-12-03T06:20:55.176Z,63.50
2022-12-03T06:23:26.576Z,58.60
2022-12-03T06:25:58.073Z,68.40
2022-12-03T06:28:30.897Z,53.10
2022-12-03T06:31:02.282Z,59.60
2022-12-03T06:33:34.451Z,62.80
2022-12-03T06:36:06.072Z,67.50
2022-12-03T06:38:37.857Z,58.30
2022-12-03T06:41:09.321Z,70.50
2022-12-03T06:43:40.929Z,64.60
2022-12-03T06:46:12.473Z,62.40
2022-12-03T06:48:44.744Z,56.50
2022-12-03T06:51:16.179Z,65.20
2022-12-03T06:53:49.235Z,52.30
2022-12-03T06:56:22.555Z,57.00
2022-12-03T06:58:54.384Z,57.70
2022-12-03T07:01:26.319Z,62.70
2022-12-03T07:03:58.078Z,55.00
2022-12-03T07:06:29.630Z,56.70
2022-12-03T07:09:01.134Z,62.60
2022-12-03T07:11:32.847Z,54.60
2022-12-03T07:14:07.349Z,51.10
2022-12-03T07:16:39.601Z,57.50
2022-12-03T07:19:12.655Z,57.90
2022-12-03T07:21:45.848Z,53.00
2022-12-03T07:24:17.792Z,62.20
2022-12-03T07:26:49.257Z,55.80
2022-12-03T07:29:21.101Z,60.60
2022-12-03T07:31:52.656Z,65.20
2022-12-03T07:34:24.164Z,61.30
2022-12-03T07:36:56.867Z,57.50
2022-12-03T07:39:28.384Z,52.20
2022-12-03T07:42:00.053Z,59.50
2022-12-03T07:44:32.261Z,61.50
2022-12-03T07:47:07.101Z,55.10
2022-12-03T07:49:38.814Z,54.70
2022-12-03T07:52:10.218Z,59.50
2022-12-03T07:54:41.743Z,59.80
2022-12-03T07:57:13.304Z,59.30
2022-12-03T07:59:45.033Z,73.30
2022-12-03T08:02:21.357Z,73.80
2022-12-03T08:04:53.455Z,53.60
2022-12-03T08:07:25.847Z,61.90
2022-12-03T08:09:58.779Z,62.40
2022-12-03T08:12:40.451Z,66.90
2022-12-03T08:15:18.524Z,64.90
2022-12-03T08:17:56.414Z,58.10
2022-12-03T08:20:31.565Z,62.80
2022-12-03T08:23:05.845Z,67.10
2022-12-03T08:25:37.402Z,65.90
2022-12-03T08:28:15.616Z,94.00
2022-12-03T08:30:51.631Z,108.70
2022-12-03T08:33:29.080Z,87.10
2022-12-03T08:36:03.360Z,72.40
2022-12-03T08:38:35.489Z,60.00
2022-12-03T08:41:36.968Z,55.30
2022-12-03T08:44:27.490Z,56.20
2022-12-03T08:47:08.840Z,49.20
2022-12-03T08:49:40.778Z,53.30
2022-12-03T08:52:20.778Z,48.90
2022-12-03T08:54:56.801Z,53.50
2022-12-03T08:57:31.500Z,53.90
2022-12-03T09:00:15.877Z,50.20
2022-12-03T09:02:50.968Z,48.70
2022-12-03T09:05:24.344Z,40.70
2022-12-03T09:07:56.019Z,51.90
2022-12-03T09:10:27.649Z,53.80
2022-12-03T09:12:59.062Z,56.00
2022-12-03T09:15:30.440Z,53.20
2022-12-03T09:18:01.882Z,51.70
2022-12-03T09:20:33.162Z,51.30
2022-12-03T09:23:05.028Z,55.60
2022-12-03T09:25:36.533Z,50.20
2022-12-03T09:28:09.004Z,63.40
2022-12-03T09:30:40.652Z,83.90
2022-12-03T09:33:12.331Z,80.50
2022-12-03T09:35:43.881Z,53.00
2022-12-03T09:38:15.849Z,53.50
2022-12-03T09:40:48.174Z,60.10
2022-12-03T09:43:20.237Z,54.90
2022-12-03T09:45:53.033Z,82.50
2022-12-03T09:48:25.505Z,79.40
2022-12-03T09:50:56.995Z,64.10
2022-12-03T09:53:30.356Z,52.90
2022-12-03T09:56:03.226Z,57.40
2022-12-03T09:58:35.117Z,50.10
2022-12-03T10:01:14.198Z,54.30
2022-12-03T10:03:49.995Z,60.80
2022-12-03T10:06:24.083Z,54.50
2022-12-03T10:09:00.460Z,52.30
2022-12-03T10:11:33.290Z,48.10
2022-12-03T10:14:05.051Z,53.00
2022-12-03T10:16:37.406Z,47.40
2022-12-03T10:19:11.893Z,49.30
2022-12-03T10:21:43.531Z,46.10
2022-12-03T10:24:29.944Z,48.10
2022-12-03T10:27:04.451Z,48.40
2022-12-03T10:29:37.609Z,40.60
2022-12-03T10:32:12.133Z,40.60
2022-12-03T10:34:46.032Z,49.80
2022-12-03T10:37:20.659Z,44.40
2022-12-03T10:40:01.106Z,46.50
2022-12-03T10:42:34.747Z,51.40
2022-12-03T10:45:18.427Z,46.70
2022-12-03T10:48:07.367Z,50.20
2022-12-03T10:50:38.890Z,48.50
2022-12-03T10:53:12.276Z,58.90
2022-12-03T10:55:45.997Z,51.40
2022-12-03T10:58:28.590Z,52.50
2022-12-03T11:01:03.701Z,48.80
2022-12-03T11:03:38.640Z,48.50
2022-12-03T11:06:15.461Z,54.80
2022-12-03T11:08:56.524Z,49.60
2022-12-03T11:11:31.342Z,50.20
2022-12-03T11:14:04.317Z,48.30
2022-12-03T11:17:09.350Z,49.80
2022-12-03T11:19:53.935Z,49.60
2022-12-03T11:22:44.135Z,50.20
2022-12-03T11:25:50.788Z,49.50
2022-12-03T11:28:54.754Z,57.50
2022-12-03T11:31:41.640Z,61.90
2022-12-03T11:34:50.452Z,55.30
2022-12-03T11:37:31.755Z,53.20
2022-12-03T11:40:20.387Z,48.30
2022-12-03T11:42:52.302Z,63.50
2022-12-03T11:45:30.660Z,54.60
2022-12-03T11:48:11.540Z,57.90
2022-12-03T11:50:44.999Z,59.20
2022-12-03T11:53:24.573Z,56.40
2022-12-03T11:56:09.364Z,55.10
2022-12-03T11:58:45.680Z,55.80
2022-12-03T12:01:17.762Z,58.70
2022-12-03T12:03:50.924Z,56.90
2022-12-03T12:06:23.411Z,57.40
2022-12-03T12:09:04.223Z,56.30
2022-12-03T12:11:36.805Z,56.50
2022-12-03T12:14:09.506Z,59.40
2022-12-03T12:16:52.492Z,64.50
2022-12-03T12:19:36.519Z,69.60
2022-12-03T12:22:30.332Z,71.00
2022-12-03T12:25:03.146Z,69.50
2022-12-03T12:27:39.802Z,63.90
2022-12-03T12:30:15.966Z,62.10
2022-12-03T12:32:52.263Z,62.10
2022-12-03T12:35:25.191Z,63.00
2022-12-03T12:38:00.120Z,66.50
2022-12-03T12:40:34.200Z,61.30
2022-12-03T12:43:21.883Z,64.30
2022-12-03T12:45:57.267Z,62.00
2022-12-03T12:48:32.723Z,67.40
2022-12-03T12:51:10.609Z,66.90
2022-12-03T12:53:43.235Z,69.30
2022-12-03T12:56:24.796Z,64.70
2022-12-03T12:58:58.607Z,68.50
2022-12-03T13:01:33.239Z,66.00
2022-12-03T13:06:36.384Z,65.40
2022-12-03T13:09:18.383Z,61.80
2022-12-03T13:11:53.723Z,64.20
2022-12-03T13:14:26.457Z,66.40
2022-12-03T13:17:01.492Z,67.40
2022-12-03T13:19:46.627Z,68.10
2022-12-03T13:22:22.477Z,72.00
2022-12-03T13:24:56.420Z,67.20
2022-12-03T13:27:30.916Z,61.60
2022-12-03T13:30:08.544Z,69.90
2022-12-03T13:32:43.056Z,74.80
2022-12-03T13:35:24.357Z,72.80
2022-12-03T13:37:56.243Z,71.10
2022-12-03T13:40:32.331Z,69.20
2022-12-03T13:43:12.046Z,81.60
2022-12-03T13:45:45.313Z,76.80
2022-12-03T13:48:23.570Z,74.50
2022-12-03T13:50:55.782Z,76.60
2022-12-03T13:53:28.968Z,76.20
2022-12-03T13:56:04.861Z,84.80
2022-12-03T13:58:36.246Z,78.30
2022-12-03T14:01:07.988Z,82.80
2022-12-03T14:03:39.901Z,86.30
2022-12-03T14:06:11.695Z,81.40
2022-12-03T14:08:43.326Z,80.40
2022-12-03T14:11:35.865Z,106.50
2022-12-03T14:14:07.315Z,93.40
2022-12-03T14:16:38.810Z,92.10
2022-12-03T14:19:10.318Z,96.00
2022-12-03T14:21:41.927Z,87.40
2022-12-03T14:24:13.390Z,90.20
2022-12-03T14:26:44.840Z,93.70
2022-12-03T14:29:16.353Z,101.30
2022-12-03T14:31:47.704Z,80.40
2022-12-03T14:34:19.191Z,89.20
2022-12-03T14:36:50.729Z,89.90
2022-12-03T14:39:22.245Z,91.80
2022-12-03T14:42:11.359Z,98.30
2022-12-03T14:44:43.120Z,89.60
2022-12-03T14:47:16.505Z,106.70
2022-12-03T14:49:48.529Z,105.70
2022-12-03T14:52:20.627Z,86.20
2022-12-03T14:54:52.957Z,90.50
2022-12-03T14:57:25.093Z,89.60
2022-12-03T14:59:57.067Z,92.60
2022-12-03T15:02:30.621Z,96.40
2022-12-03T15:05:03.106Z,83.90
2022-12-03T15:07:34.931Z,88.70
2022-12-03T15:10:07.832Z,85.70
2022-12-03T15:12:39.446Z,83.60
2022-12-03T15:15:13.875Z,81.90
2022-12-03T15:17:46.461Z,123.50
2022-12-03T15:20:18.685Z,118.60
2022-12-03T15:22:50.812Z,105.30
2022-12-03T15:25:25.838Z,98.20
2022-12-03T15:27:58.027Z,108.10
2022-12-03T15:30:30.292Z,124.20
2022-12-03T15:33:02.328Z,107.20
2022-12-03T15:35:34.630Z,99.10
2022-12-03T15:38:07.015Z,119.40
2022-12-03T15:40:39.592Z,102.00
2022-12-03T15:43:12.036Z,100.00
2022-12-03T15:45:43.584Z,99.60
2022-12-03T15:48:16.279Z,87.50
2022-12-03T15:50:48.450Z,91.00
2022-12-03T15:53:20.503Z,86.10
2022-12-03T15:55:52.370Z,84.30
2022-12-03T15:58:25.215Z,86.10
2022-12-03T16:00:57.361Z,93.20
2022-12-03T16:03:29.793Z,91.80
2022-12-03T16:06:02.658Z,87.30
2022-12-03T16:08:35.519Z,82.30
2022-12-03T16:11:08.316Z,88.00
2022-12-03T16:13:40.276Z,77.40
2022-12-03T16:16:12.075Z,88.30
2022-12-03T16:18:44.123Z,84.80
2022-12-03T16:21:16.341Z,85.50
2022-12-03T16:23:48.732Z,79.50
2022-12-03T16:26:20.315Z,76.60
2022-12-03T16:28:52.228Z,77.20
2022-12-03T16:31:24.462Z,83.40
2022-12-03T16:33:56.337Z,79.50
2022-12-03T16:36:28.813Z,77.10
2022-12-03T16:39:01.926Z,75.60
2022-12-03T16:41:34.058Z,72.50
2022-12-03T16:44:05.840Z,73.10
2022-12-03T16:46:38.504Z,89.40
2022-12-03T16:49:11.968Z,83.90
2022-12-03T16:51:44.563Z,79.00
2022-12-03T16:54:16.399Z,90.50
2022-12-03T16:56:48.543Z,89.40
2022-12-03T16:59:21.122Z,79.40
2022-12-03T17:01:53.161Z,80.40
2022-12-03T17:04:24.773Z,80.80
2022-12-03T17:06:58.482Z,84.60
2022-12-03T17:09:30.633Z,78.60
2022-12-03T17:12:02.297Z,88.50
2022-12-03T17:14:35.161Z,83.10
2022-12-03T17:17:08.098Z,82.70
2022-12-03T17:19:40.948Z,80.60
2022-12-03T17:22:14.426Z,92.20
2022-12-03T17:24:47.136Z,80.80
2022-12-03T17:27:19.102Z,86.00
2022-12-03T17:29:52.767Z,112.40
2022-12-03T17:32:24.770Z,99.00
2022-12-03T17:34:58.437Z,91.80
2022-12-03T17:37:33.124Z,97.70
2022-12-03T17:40:05.681Z,88.20
2022-12-03T17:42:37.884Z,86.10
2022-12-03T17:45:12.703Z,86.20
2022-12-03T17:50:16.144Z,79.20
2022-12-03T17:52:48.518Z,93.00
2022-12-03T17:55:28.152Z,88.60
2022-12-03T17:58:03.045Z,81.10
2022-12-03T18:00:36.530Z,86.90
2022-12-03T18:03:09.109Z,88.40
2022-12-03T18:05:42.636Z,90.80
2022-12-03T18:08:15.725Z,86.10
2022-12-03T18:10:48.901Z,86.90
2022-12-03T18:13:21.122Z,91.30
2022-12-03T18:15:53.817Z,102.70
2022-12-03T18:18:27.041Z,121.20
2022-12-03T18:21:02.477Z,93.10
2022-12-03T18:23:36.026Z,102.30
2022-12-03T18:26:09.080Z,80.40
2022-12-03T18:28:42.036Z,93.80
2022-12-03T18:31:17.503Z,97.10
2022-12-03T18:33:50.177Z,89.40
2022-12-03T18:36:24.597Z,109.30
2022-12-03T18:39:01.899Z,87.90
2022-12-03T18:41:35.542Z,92.70
2022-12-03T18:44:14.037Z,89.90
2022-12-03T18:46:54.708Z,102.10
2022-12-03T18:49:28.031Z,110.00
2022-12-03T18:52:01.653Z,101.30
2022-12-03T18:54:33.922Z,103.00
2022-12-03T18:57:06.793Z,101.50
2022-12-03T18:59:39.892Z,92.30
2022-12-03T19:05:17.460Z,88.80
2022-12-03T19:07:52.009Z,91.10
2022-12-03T19:10:26.244Z,88.00
2022-12-03T19:13:00.277Z,142.00
2022-12-03T19:15:34.133Z,94.70
2022-12-03T19:18:08.610Z,92.70
2022-12-03T19:20:46.263Z,111.40
2022-12-03T19:23:19.499Z,102.70
2022-12-03T19:26:02.395Z,104.90
2022-12-03T19:28:35.057Z,102.50
2022-12-03T19:31:11.144Z,106.60
2022-12-03T19:33:45.141Z,101.80
2022-12-03T19:36:26.074Z,98.80
2022-12-03T19:39:01.312Z,91.60
2022-12-03T19:41:38.447Z,86.20
2022-12-03T19:44:14.311Z,88.80
2022-12-03T19:46:47.323Z,84.60
2022-12-03T19:49:21.745Z,84.50
2022-12-03T19:51:54.194Z,78.70
2022-12-03T19:54:27.094Z,78.30
2022-12-03T19:56:59.429Z,78.10
2022-12-03T19:59:31.911Z,86.90
2022-12-03T20:02:05.545Z,73.20
2022-12-03T20:04:37.887Z,73.50
2022-12-03T20:07:11.594Z,72.60
2022-12-03T20:09:44.207Z,73.10
2022-12-03T20:12:16.937Z,77.60
2022-12-03T20:14:51.136Z,73.50
2022-12-03T20:17:23.553Z,79.90
2022-12-03T20:19:55.761Z,77.20
2022-12-03T20:22:28.278Z,75.90
2022-12-03T20:25:00.365Z,69.20
2022-12-03T20:27:32.406Z,76.00
2022-12-03T20:30:04.730Z,76.60
2022-12-03T20:32:42.097Z,77.40
2022-12-03T20:35:18.482Z,80.70
2022-12-03T20:37:51.037Z,77.60
2022-12-03T20:40:23.946Z,68.50
2022-12-03T20:42:57.024Z,79.70
2022-12-03T20:45:29.443Z,102.80
2022-12-03T20:48:01.936Z,80.30
2022-12-03T20:50:33.914Z,75.70
2022-12-03T20:53:23.630Z,94.60
2022-12-03T20:56:00.956Z,97.30
2022-12-03T20:58:34.858Z,86.80
2022-12-03T21:01:15.966Z,80.60
2022-12-03T21:03:51.046Z,81.00
2022-12-03T21:06:24.626Z,85.20
2022-12-03T21:08:59.918Z,82.30
2022-12-03T21:11:34.375Z,79.50
2022-12-03T21:14:06.640Z,77.40
2022-12-03T21:19:33.009Z,70.50
2022-12-03T21:22:04.555Z,82.10
2022-12-03T21:24:36.716Z,75.80
2022-12-03T21:27:08.785Z,75.50
2022-12-03T21:29:41.801Z,95.50
2022-12-03T21:32:14.288Z,77.90
2022-12-03T21:34:46.231Z,76.20
2022-12-03T21:37:17.715Z,75.40
2022-12-03T21:39:49.737Z,76.30
2022-12-03T21:42:35.756Z,75.00
2022-12-03T21:45:12.509Z,68.60
2022-12-03T21:47:48.093Z,73.70
2022-12-03T21:50:20.596Z,74.40
2022-12-03T21:52:53.029Z,68.60
2022-12-03T21:55:24.684Z,84.40
2022-12-03T21:57:56.691Z,73.10
2022-12-03T22:00:32.578Z,87.80
2022-12-03T22:03:04.747Z,78.00
2022-12-03T22:05:39.143Z,87.10
2022-12-03T22:08:16.559Z,79.80
2022-12-03T22:10:48.608Z,73.70
2022-12-03T22:13:20.637Z,73.90
2022-12-03T22:15:52.328Z,80.10
2022-12-03T22:18:24.388Z,71.60
2022-12-03T22:20:56.209Z,79.30
2022-12-03T22:23:28.534Z,80.90
2022-12-03T22:26:05.259Z,83.10
2022-12-03T22:28:37.610Z,84.80
2022-12-03T22:31:11.467Z,86.30
2022-12-03T22:33:43.776Z,74.10
2022-12-03T22:36:21.044Z,76.90
2022-12-03T22:38:53.345Z,73.20
2022-12-03T22:41:24.884Z,78.70
2022-12-03T22:43:56.905Z,71.60
2022-12-03T22:46:29.021Z,76.00
2022-12-03T22:49:06.819Z,78.10
2022-12-03T22:51:39.600Z,69.50
2022-12-03T22:54:12.058Z,74.50
2022-12-03T22:56:43.833Z,74.40
2022-12-03T22:59:15.383Z,70.90
2022-12-03T23:01:47.888Z,68.20
2022-12-03T23:04:19.829Z,71.50
2022-12-03T23:06:51.988Z,67.10
2022-12-03T23:09:23.855Z,81.30
2022-12-03T23:11:55.659Z,72.40
2022-12-03T23:14:27.785Z,69.20
2022-12-03T23:17:00.868Z,66.60
2022-12-03T23:19:32.360Z,68.50
2022-12-03T23:22:04.144Z,70.30
2022-12-03T23:24:35.589Z,74.30
2022-12-03T23:27:08.208Z,67.20
2022-12-03T23:29:39.652Z,55.00
2022-12-03T23:32:13.461Z,58.30
2022-12-03T23:34:45.194Z,65.80
2022-12-03T23:37:17.061Z,61.00
2022-12-03T23:39:52.199Z,63.50
2022-12-03T23:42:23.983Z,63.50
2022-12-03T23:44:55.379Z,77.90
2022-12-03T23:47:26.770Z,93.00
2022-12-03T23:49:58.300Z,75.30
2022-12-03T23:52:29.704Z,73.40
2022-12-03T23:55:01.072Z,61.40
2022-12-03T23:57:32.529Z,63.40
